createdAt,value
2023-02-22T00:01:35.112Z,2.07
2023-02-22T00:04:05.805Z,2.20
2023-02-22T00:06:34.631Z,1.97
2023-02-22T00:09:03.443Z,2.20
2023-02-22T00:11:32.529Z,2.23
2023-02-22T00:14:02.471Z,2.40
2023-02-22T00:16:31.780Z,2.80
2023-02-22T00:19:00.341Z,2.77
2023-02-22T00:21:31.165Z,2.83
2023-02-22T00:23:59.633Z,2.97
2023-02-22T00:26:28.110Z,2.90
2023-02-22T00:28:56.532Z,3.00
2023-02-22T00:31:24.996Z,3.00
2023-02-22T00:33:53.425Z,3.00
2023-02-22T00:36:21.866Z,2.97
2023-02-22T00:38:51.666Z,2.50
2023-02-22T00:41:20.138Z,3.10
2023-02-22T00:43:48.956Z,3.57
2023-02-22T00:46:17.413Z,3.83
2023-02-22T00:48:45.880Z,4.23
2023-02-22T00:51:14.689Z,3.60
2023-02-22T00:53:43.356Z,2.53
2023-02-22T00:56:13.350Z,2.43
2023-02-22T00:58:41.873Z,2.13
2023-02-22T01:01:10.400Z,1.97
2023-02-22T01:03:41.447Z,2.00
2023-02-22T01:06:10.127Z,1.90
2023-02-22T01:08:38.539Z,1.80
2023-02-22T01:11:07.002Z,2.10
2023-02-22T01:13:36.894Z,1.83
2023-02-22T01:16:08.312Z,1.90
2023-02-22T01:18:37.105Z,1.80
2023-02-22T01:21:06.511Z,2.00
2023-02-22T01:23:34.915Z,1.90
2023-02-22T01:26:05.694Z,1.80
2023-02-22T01:28:34.282Z,1.80
2023-02-22T01:31:04.159Z,1.93
2023-02-22T01:33:34.016Z,1.77
2023-02-22T01:36:03.733Z,1.83
2023-02-22T01:38:32.210Z,1.60
2023-02-22T01:41:00.929Z,1.47
2023-02-22T01:43:31.628Z,1.63
2023-02-22T01:46:01.881Z,1.90
2023-02-22T01:48:41.794Z,1.60
2023-02-22T01:51:14.270Z,1.80
2023-02-22T01:53:47.006Z,1.60
2023-02-22T01:56:15.907Z,1.70
2023-02-22T01:58:46.861Z,1.60
2023-02-22T02:01:16.323Z,1.70
2023-02-22T02:03:46.495Z,1.63
2023-02-22T02:06:15.992Z,1.60
2023-02-22T02:08:54.066Z,1.80
2023-02-22T02:11:25.492Z,1.67
2023-02-22T02:13:55.777Z,1.63
2023-02-22T02:16:25.146Z,1.70
2023-02-22T02:18:55.598Z,1.40
2023-02-22T02:21:44.974Z,1.50
2023-02-22T02:24:33.644Z,1.33
2023-02-22T02:27:13.112Z,1.57
2023-02-22T02:30:18.288Z,1.53
2023-02-22T02:32:54.868Z,1.20
2023-02-22T02:35:30.678Z,1.50
2023-02-22T02:38:05.890Z,1.33
2023-02-22T02:40:38.503Z,1.30
2023-02-22T02:43:14.453Z,1.30
2023-02-22T02:45:47.647Z,1.20
2023-02-22T02:48:19.026Z,1.30
2023-02-22T02:50:49.937Z,1.40
2023-02-22T02:53:22.818Z,1.20
2023-02-22T02:55:51.253Z,1.40
2023-02-22T02:58:22.825Z,1.33
2023-02-22T03:00:55.522Z,1.50
2023-02-22T03:03:42.358Z,1.30
2023-02-22T03:06:25.253Z,1.43
2023-02-22T03:09:00.343Z,1.50
2023-02-22T03:11:31.439Z,1.27
2023-02-22T03:14:12.202Z,1.13
2023-02-22T03:16:46.316Z,1.40
2023-02-22T03:19:21.855Z,1.40
2023-02-22T03:21:57.472Z,1.50
2023-02-22T03:24:28.849Z,1.20
2023-02-22T03:27:02.874Z,1.30
2023-02-22T03:29:36.677Z,1.47
2023-02-22T03:32:08.464Z,1.40
2023-02-22T03:34:41.675Z,1.50
2023-02-22T03:37:14.686Z,1.37
2023-02-22T03:39:44.280Z,1.50
2023-02-22T03:42:16.436Z,1.33
2023-02-22T03:44:46.316Z,1.43
2023-02-22T03:47:17.742Z,1.30
2023-02-22T03:49:50.454Z,1.23
2023-02-22T03:52:19.153Z,1.40
2023-02-22T03:54:47.783Z,1.33
2023-02-22T03:57:20.811Z,1.20
2023-02-22T03:59:49.462Z,1.20
2023-02-22T04:02:19.081Z,1.40
2023-02-22T04:04:49.703Z,1.30
2023-02-22T04:07:18.983Z,1.33
2023-02-22T04:09:47.440Z,1.40
2023-02-22T04:12:15.894Z,1.40
2023-02-22T04:14:44.547Z,1.50
2023-02-22T04:17:13.015Z,1.37
2023-02-22T04:19:41.622Z,1.47
2023-02-22T04:22:11.445Z,1.30
2023-02-22T04:24:39.898Z,1.50
2023-02-22T04:27:08.294Z,1.30
2023-02-22T04:29:36.741Z,1.30
2023-02-22T04:32:05.763Z,1.40
2023-02-22T04:34:34.370Z,1.40
2023-02-22T04:37:03.622Z,1.50
2023-02-22T04:39:33.431Z,1.40
2023-02-22T04:42:01.842Z,1.23
2023-02-22T04:44:30.279Z,1.60
2023-02-22T04:46:58.771Z,1.60
2023-02-22T04:49:27.261Z,1.93
2023-02-22T04:51:55.651Z,1.97
2023-02-22T04:54:24.175Z,2.00
2023-02-22T04:56:54.068Z,6.90
2023-02-22T04:59:22.510Z,14.00
2023-02-22T05:01:50.959Z,12.47
2023-02-22T05:04:19.682Z,10.40
2023-02-22T05:06:48.200Z,6.70
2023-02-22T05:09:16.834Z,3.73
2023-02-22T05:11:45.256Z,2.50
2023-02-22T05:14:15.045Z,2.40
2023-02-22T05:16:43.585Z,2.10
2023-02-22T05:19:12.140Z,1.90
2023-02-22T05:21:41.366Z,1.93
2023-02-22T05:24:09.887Z,1.90
2023-02-22T05:26:38.312Z,2.00
2023-02-22T05:29:06.763Z,1.70
2023-02-22T05:31:36.738Z,1.80
2023-02-22T05:34:05.308Z,1.70
2023-02-22T05:36:33.669Z,1.83
2023-02-22T05:39:02.090Z,1.87
2023-02-22T05:41:30.796Z,1.93
2023-02-22T05:43:59.238Z,1.80
2023-02-22T05:46:27.686Z,2.07
2023-02-22T05:48:57.525Z,1.90
2023-02-22T05:51:25.937Z,1.73
2023-02-22T05:53:54.416Z,2.00
2023-02-22T05:56:24.587Z,2.03
2023-02-22T05:58:53.059Z,2.00
2023-02-22T06:01:22.552Z,2.17
2023-02-22T06:03:51.689Z,7.07
2023-02-22T06:06:22.558Z,10.27
2023-02-22T06:08:51.368Z,10.90
2023-02-22T06:11:20.569Z,7.03
2023-02-22T06:13:52.699Z,4.27
2023-02-22T06:16:22.158Z,3.50
2023-02-22T06:18:50.971Z,3.97
2023-02-22T06:21:20.972Z,4.40
2023-02-22T06:23:49.473Z,4.27
2023-02-22T06:26:18.863Z,4.43
2023-02-22T06:28:47.562Z,4.47
2023-02-22T06:31:16.689Z,5.17
2023-02-22T06:33:45.969Z,6.00
2023-02-22T06:36:14.443Z,10.80
2023-02-22T06:38:44.530Z,15.60
2023-02-22T06:41:12.990Z,15.07
2023-02-22T06:43:41.396Z,7.07
2023-02-22T06:46:11.399Z,6.60
2023-02-22T06:48:40.438Z,7.43
2023-02-22T06:51:09.882Z,6.57
2023-02-22T06:53:38.304Z,6.70
2023-02-22T06:56:08.601Z,6.17
2023-02-22T06:58:37.071Z,6.10
2023-02-22T07:01:07.928Z,5.00
2023-02-22T07:03:38.083Z,4.80
2023-02-22T07:06:08.923Z,4.70
2023-02-22T07:08:37.384Z,4.70
2023-02-22T07:11:06.042Z,4.20
2023-02-22T07:13:35.849Z,4.20
2023-02-22T07:16:04.458Z,3.60
2023-02-22T07:18:33.018Z,3.70
2023-02-22T07:21:01.838Z,3.40
2023-02-22T07:23:30.918Z,7.90
2023-02-22T07:26:01.843Z,6.23
2023-02-22T07:28:30.294Z,10.50
2023-02-22T07:31:01.468Z,7.43
2023-02-22T07:33:29.980Z,5.50
2023-02-22T07:35:58.475Z,4.43
2023-02-22T07:38:26.890Z,5.10
2023-02-22T07:40:57.857Z,5.80
2023-02-22T07:43:27.756Z,5.47
2023-02-22T07:45:57.917Z,5.47
2023-02-22T07:48:29.325Z,8.53
2023-02-22T07:50:58.358Z,19.37
2023-02-22T07:53:30.253Z,14.27
2023-02-22T07:55:59.049Z,9.70
2023-02-22T07:58:28.823Z,28.03
2023-02-22T08:00:57.732Z,13.60
2023-02-22T08:03:28.346Z,5.00
2023-02-22T08:06:00.445Z,4.90
2023-02-22T08:08:28.945Z,4.83
2023-02-22T08:10:57.839Z,9.67
2023-02-22T08:13:26.409Z,8.27
2023-02-22T08:15:55.096Z,6.30
2023-02-22T08:18:24.414Z,6.30
2023-02-22T08:20:54.725Z,5.67
2023-02-22T08:23:25.348Z,5.43
2023-02-22T08:25:54.557Z,15.67
2023-02-22T08:28:24.304Z,20.23
2023-02-22T08:30:53.169Z,12.90
2023-02-22T08:33:21.961Z,7.77
2023-02-22T08:35:51.687Z,5.80
2023-02-22T08:38:23.891Z,5.03
2023-02-22T08:40:52.617Z,6.77
2023-02-22T08:43:21.702Z,6.53
2023-02-22T08:45:51.672Z,6.90
2023-02-22T08:48:20.660Z,6.70
2023-02-22T08:50:49.943Z,6.83
2023-02-22T08:53:19.079Z,6.83
2023-02-22T08:55:49.803Z,7.10
2023-02-22T08:58:18.313Z,7.20
2023-02-22T09:00:47.278Z,7.77
2023-02-22T09:03:16.509Z,8.00
2023-02-22T09:05:45.601Z,7.77
2023-02-22T09:08:14.393Z,7.00
2023-02-22T09:10:42.831Z,6.57
2023-02-22T09:13:13.254Z,6.80
2023-02-22T09:15:42.479Z,6.63
2023-02-22T09:18:14.556Z,6.57
2023-02-22T09:20:43.268Z,7.40
2023-02-22T09:23:11.865Z,8.27
2023-02-22T09:25:40.863Z,16.47
2023-02-22T09:28:09.631Z,6.57
2023-02-22T09:30:39.512Z,6.43
2023-02-22T09:33:11.027Z,7.20
2023-02-22T09:35:42.450Z,9.20
2023-02-22T09:38:11.543Z,17.87
2023-02-22T09:40:45.079Z,10.43
2023-02-22T09:43:33.239Z,10.20
2023-02-22T09:46:20.556Z,15.00
2023-02-22T09:49:00.116Z,10.40
2023-02-22T09:51:31.588Z,10.53
2023-02-22T09:54:01.850Z,10.27
2023-02-22T09:56:31.627Z,10.23
2023-02-22T09:59:03.700Z,10.53
2023-02-22T10:01:39.137Z,10.80
2023-02-22T10:04:13.366Z,10.33
2023-02-22T10:06:48.778Z,11.63
2023-02-22T10:09:19.041Z,11.00
2023-02-22T10:11:59.009Z,11.33
2023-02-22T10:14:51.998Z,13.13
2023-02-22T10:17:29.728Z,12.03
2023-02-22T10:20:08.618Z,10.93
2023-02-22T10:22:46.765Z,11.30
2023-02-22T10:25:21.373Z,11.67
2023-02-22T10:27:55.202Z,11.83
2023-02-22T10:30:25.976Z,11.73
2023-02-22T10:33:01.081Z,11.73
2023-02-22T10:35:31.291Z,11.90
2023-02-22T10:38:05.385Z,11.67
2023-02-22T10:40:34.336Z,11.33
2023-02-22T10:43:07.533Z,11.73
2023-02-22T10:45:37.192Z,11.47
2023-02-22T10:48:13.474Z,12.33
2023-02-22T10:50:45.052Z,12.30
2023-02-22T10:53:15.807Z,12.70
2023-02-22T10:56:11.790Z,12.70
2023-02-22T10:58:50.521Z,11.90
2023-02-22T11:01:24.609Z,11.77
2023-02-22T11:04:14.724Z,12.57
2023-02-22T11:06:50.510Z,12.00
2023-02-22T11:09:22.700Z,11.30
2023-02-22T11:11:52.882Z,10.17
2023-02-22T11:14:31.057Z,12.23
2023-02-22T11:17:00.546Z,9.80
2023-02-22T11:19:32.912Z,9.80
2023-02-22T11:22:12.199Z,9.57
2023-02-22T11:24:50.616Z,9.37
2023-02-22T11:27:28.257Z,8.93
2023-02-22T11:30:08.530Z,8.03
2023-02-22T11:32:37.219Z,8.63
2023-02-22T11:35:35.560Z,8.80
2023-02-22T11:38:18.154Z,8.00
2023-02-22T11:40:47.156Z,7.40
2023-02-22T11:43:21.754Z,7.80
2023-02-22T11:46:02.131Z,7.70
2023-02-22T11:48:36.691Z,7.73
2023-02-22T11:51:23.157Z,9.97
2023-02-22T11:54:31.293Z,8.10
2023-02-22T11:57:07.276Z,7.93
2023-02-22T11:59:40.891Z,7.93
2023-02-22T12:02:31.623Z,8.23
2023-02-22T12:05:13.857Z,8.10
2023-02-22T12:07:52.987Z,8.93
2023-02-22T12:10:30.146Z,8.40
2023-02-22T12:13:11.662Z,8.20
2023-02-22T12:15:45.813Z,8.40
2023-02-22T12:18:26.245Z,10.87
2023-02-22T12:20:56.840Z,12.70
2023-02-22T12:23:31.873Z,8.60
2023-02-22T12:26:03.022Z,8.27
2023-02-22T12:28:38.134Z,8.10
2023-02-22T12:31:15.512Z,8.97
2023-02-22T12:33:50.607Z,9.80
2023-02-22T12:36:22.497Z,9.47
2023-02-22T12:38:56.395Z,9.23
2023-02-22T12:41:29.928Z,8.57
2023-02-22T12:44:02.841Z,9.37
2023-02-22T12:46:35.014Z,9.73
2023-02-22T12:49:11.537Z,8.87
2023-02-22T12:51:43.204Z,7.30
2023-02-22T12:54:17.991Z,8.77
2023-02-22T12:56:51.520Z,7.90
2023-02-22T12:59:25.016Z,8.20
2023-02-22T13:01:58.695Z,8.30
2023-02-22T13:04:31.890Z,7.63
2023-02-22T13:07:11.704Z,7.47
2023-02-22T13:10:00.590Z,8.10
2023-02-22T13:12:36.964Z,8.13
2023-02-22T13:15:10.912Z,8.50
2023-02-22T13:17:52.469Z,8.20
2023-02-22T13:20:25.206Z,7.93
2023-02-22T13:22:58.638Z,7.63
2023-02-22T13:25:37.985Z,8.30
2023-02-22T13:28:26.018Z,8.33
2023-02-22T13:31:08.970Z,8.20
2023-02-22T13:33:50.443Z,8.17
2023-02-22T13:36:31.088Z,9.63
2023-02-22T13:39:29.147Z,12.17
2023-02-22T13:42:23.013Z,12.57
2023-02-22T13:45:24.014Z,9.23
2023-02-22T13:48:14.565Z,9.10
2023-02-22T13:51:03.577Z,10.93
2023-02-22T13:53:40.202Z,8.90
2023-02-22T13:56:08.868Z,8.70
2023-02-22T13:58:49.207Z,8.90
2023-02-22T14:01:39.271Z,9.50
2023-02-22T14:04:46.507Z,8.97
2023-02-22T14:07:58.040Z,9.63
2023-02-22T14:10:51.070Z,9.57
2023-02-22T14:13:20.255Z,9.63
2023-02-22T14:16:22.242Z,8.50
2023-02-22T14:19:03.105Z,10.13
2023-02-22T14:21:31.568Z,10.50
2023-02-22T14:24:08.423Z,10.03
2023-02-22T14:26:37.727Z,9.47
2023-02-22T14:29:17.402Z,9.10
2023-02-22T14:32:02.832Z,10.47
2023-02-22T14:34:49.805Z,10.63
2023-02-22T14:37:21.100Z,10.97
2023-02-22T14:39:51.487Z,9.83
2023-02-22T14:42:23.655Z,9.20
2023-02-22T14:44:57.361Z,9.90
2023-02-22T14:47:29.562Z,9.90
2023-02-22T14:50:05.844Z,9.57
2023-02-22T14:52:37.577Z,9.57
2023-02-22T14:55:22.519Z,9.80
2023-02-22T14:58:02.249Z,9.30
2023-02-22T15:00:40.109Z,9.33
2023-02-22T15:03:19.802Z,9.90
2023-02-22T15:05:50.764Z,10.50
2023-02-22T15:08:28.042Z,9.27
2023-02-22T15:10:57.972Z,9.50
2023-02-22T15:13:31.481Z,9.60
2023-02-22T15:16:02.264Z,9.30
2023-02-22T15:18:34.535Z,10.10
2023-02-22T15:21:07.932Z,9.00
2023-02-22T15:23:44.724Z,8.80
2023-02-22T15:26:22.672Z,9.20
2023-02-22T15:28:55.332Z,9.73
2023-02-22T15:31:27.496Z,8.70
2023-02-22T15:33:56.296Z,9.00
2023-02-22T15:36:31.003Z,9.70
2023-02-22T15:39:00.005Z,11.23
2023-02-22T15:41:32.027Z,8.77
2023-02-22T15:44:07.902Z,9.20
2023-02-22T15:46:45.280Z,8.80
2023-02-22T15:49:23.276Z,8.40
2023-02-22T15:52:05.005Z,8.63
2023-02-22T15:54:43.960Z,8.60
2023-02-22T15:57:16.293Z,8.00
2023-02-22T15:59:48.530Z,8.20
2023-02-22T16:02:32.137Z,9.87
2023-02-22T16:05:03.105Z,17.00
2023-02-22T16:07:33.062Z,14.63
2023-02-22T16:10:08.144Z,9.30
2023-02-22T16:12:36.836Z,9.10
2023-02-22T16:15:17.318Z,7.93
2023-02-22T16:18:01.023Z,8.43
2023-02-22T16:20:35.448Z,8.90
2023-02-22T16:23:24.176Z,8.73
2023-02-22T16:26:08.223Z,8.83
2023-02-22T16:28:36.745Z,7.73
2023-02-22T16:31:05.491Z,7.10
2023-02-22T16:33:34.602Z,6.37
2023-02-22T16:36:08.204Z,6.90
2023-02-22T16:38:39.600Z,27.60
2023-02-22T16:41:08.847Z,17.17
2023-02-22T16:43:37.543Z,11.33
2023-02-22T16:46:07.253Z,15.43
2023-02-22T16:48:38.348Z,19.33
2023-02-22T16:51:14.833Z,14.33
2023-02-22T16:53:44.789Z,11.87
2023-02-22T16:56:16.168Z,11.37
2023-02-22T16:58:50.918Z,11.63
2023-02-22T17:01:20.205Z,11.20
2023-02-22T17:03:48.885Z,11.10
2023-02-22T17:06:18.014Z,11.60
2023-02-22T17:08:48.787Z,9.93
2023-02-22T17:11:17.145Z,10.00
2023-02-22T17:13:47.209Z,9.97
2023-02-22T17:16:16.613Z,9.70
2023-02-22T17:18:45.987Z,10.80
2023-02-22T17:21:16.652Z,10.77
2023-02-22T17:23:47.054Z,10.37
2023-02-22T17:26:16.883Z,10.30
2023-02-22T17:28:46.019Z,10.63
2023-02-22T17:31:21.493Z,12.93
2023-02-22T17:33:51.355Z,12.37
2023-02-22T17:36:20.793Z,11.53
2023-02-22T17:38:50.834Z,13.57
2023-02-22T17:41:19.326Z,13.63
2023-02-22T17:43:47.741Z,11.80
2023-02-22T17:46:16.674Z,11.20
2023-02-22T17:48:45.486Z,15.93
2023-02-22T17:51:13.922Z,17.33
2023-02-22T17:53:42.480Z,16.90
2023-02-22T17:56:14.405Z,21.97
2023-02-22T17:58:43.077Z,26.37
2023-02-22T18:01:21.852Z,30.07
2023-02-22T18:03:50.667Z,28.87
2023-02-22T18:06:22.514Z,26.27
2023-02-22T18:08:56.013Z,27.63
2023-02-22T18:11:27.402Z,27.83
2023-02-22T18:13:56.828Z,26.10
2023-02-22T18:16:26.673Z,21.90
2023-02-22T18:18:56.160Z,18.80
2023-02-22T18:21:26.762Z,17.50
2023-02-22T18:23:55.679Z,17.27
2023-02-22T18:26:26.690Z,16.17
2023-02-22T18:28:55.438Z,15.40
2023-02-22T18:31:24.530Z,15.50
2023-02-22T18:33:54.050Z,15.70
2023-02-22T18:36:23.737Z,14.53
2023-02-22T18:38:53.677Z,11.83
2023-02-22T18:41:25.651Z,12.60
2023-02-22T18:43:58.973Z,13.93
2023-02-22T18:46:29.966Z,14.77
2023-02-22T18:48:59.141Z,15.10
2023-02-22T18:51:28.391Z,17.90
2023-02-22T18:54:00.382Z,17.47
2023-02-22T18:56:30.783Z,18.20
2023-02-22T18:59:02.390Z,18.87
2023-02-22T19:01:34.822Z,18.07
2023-02-22T19:04:03.289Z,16.73
2023-02-22T19:06:35.083Z,14.87
2023-02-22T19:09:08.585Z,14.93
2023-02-22T19:11:37.862Z,15.80
2023-02-22T19:14:08.600Z,16.23
2023-02-22T19:16:37.087Z,16.17
2023-02-22T19:19:05.622Z,17.97
2023-02-22T19:21:34.423Z,21.53
2023-02-22T19:24:03.023Z,21.87
2023-02-22T19:26:32.137Z,19.40
2023-02-22T19:29:04.750Z,17.53
2023-02-22T19:31:35.459Z,15.20
2023-02-22T19:34:05.592Z,20.07
2023-02-22T19:36:34.182Z,23.07
2023-02-22T19:39:02.637Z,22.73
2023-02-22T19:41:32.136Z,20.27
2023-02-22T19:44:00.737Z,19.80
2023-02-22T19:46:29.494Z,18.07
2023-02-22T19:48:59.516Z,14.30
2023-02-22T19:51:29.974Z,16.47
2023-02-22T19:53:59.863Z,18.53
2023-02-22T19:56:29.119Z,19.50
2023-02-22T19:58:59.423Z,20.23
2023-02-22T20:01:30.014Z,21.83
2023-02-22T20:04:01.631Z,26.10
2023-02-22T20:06:34.743Z,30.97
2023-02-22T20:09:04.094Z,33.10
2023-02-22T20:11:32.673Z,28.90
2023-02-22T20:14:01.957Z,19.43
2023-02-22T20:16:30.679Z,14.97
2023-02-22T20:19:00.630Z,12.27
2023-02-22T20:21:31.805Z,11.30
2023-02-22T20:24:01.095Z,11.73
2023-02-22T20:26:31.726Z,11.80
2023-02-22T20:29:00.396Z,13.47
2023-02-22T20:31:29.636Z,13.37
2023-02-22T20:34:00.914Z,15.97
2023-02-22T20:36:30.448Z,18.67
2023-02-22T20:38:59.898Z,18.80
2023-02-22T20:41:29.442Z,18.90
2023-02-22T20:43:58.403Z,20.97
2023-02-22T20:46:28.452Z,21.67
2023-02-22T20:48:57.569Z,20.77
2023-02-22T20:51:28.656Z,21.70
2023-02-22T20:53:59.863Z,17.13
2023-02-22T20:56:30.186Z,12.63
2023-02-22T20:58:59.188Z,11.23
2023-02-22T21:01:28.334Z,10.67
2023-02-22T21:04:01.572Z,10.47
2023-02-22T21:06:31.947Z,11.40
2023-02-22T21:09:02.770Z,13.53
2023-02-22T21:11:32.370Z,13.90
2023-02-22T21:14:01.571Z,15.33
2023-02-22T21:16:32.086Z,15.20
2023-02-22T21:19:02.687Z,14.60
2023-02-22T21:21:33.080Z,15.23
2023-02-22T21:24:02.211Z,14.27
2023-02-22T21:26:32.178Z,13.83
2023-02-22T21:29:03.361Z,12.03
2023-02-22T21:31:32.671Z,10.47
2023-02-22T21:34:01.503Z,10.37
2023-02-22T21:36:30.142Z,10.40
2023-02-22T21:39:01.369Z,9.70
2023-02-22T21:41:33.973Z,9.80
2023-02-22T21:44:02.430Z,10.43
2023-02-22T21:46:31.010Z,10.50
2023-02-22T21:48:59.849Z,11.30
2023-02-22T21:51:31.955Z,12.63
2023-02-22T21:54:03.402Z,12.47
2023-02-22T21:56:35.104Z,19.97
2023-02-22T21:59:05.587Z,37.20
2023-02-22T22:01:35.567Z,22.93
2023-02-22T22:04:05.547Z,14.80
2023-02-22T22:06:35.665Z,12.40
2023-02-22T22:09:18.086Z,11.80
2023-02-22T22:11:49.566Z,11.47
2023-02-22T22:14:18.965Z,11.60
2023-02-22T22:16:48.468Z,7.03
2023-02-22T22:19:16.982Z,8.03
2023-02-22T22:21:48.756Z,8.60
2023-02-22T22:24:20.831Z,8.50
2023-02-22T22:26:51.212Z,8.20
2023-02-22T22:29:19.805Z,8.50
2023-02-22T22:31:48.757Z,9.03
2023-02-22T22:34:17.388Z,9.00
2023-02-22T22:36:45.881Z,9.27
2023-02-22T22:39:14.326Z,8.63
2023-02-22T22:41:45.206Z,8.50
2023-02-22T22:44:15.423Z,9.20
2023-02-22T22:46:49.166Z,9.13
2023-02-22T22:49:18.443Z,9.30
2023-02-22T22:51:47.473Z,10.13
2023-02-22T22:54:16.056Z,10.00
2023-02-22T22:56:46.492Z,9.10
2023-02-22T22:59:15.298Z,8.27
2023-02-22T23:01:45.293Z,9.00
2023-02-22T23:04:16.869Z,8.43
2023-02-22T23:06:46.812Z,8.33
2023-02-22T23:09:18.756Z,8.20
2023-02-22T23:11:50.866Z,7.80
2023-02-22T23:14:21.571Z,7.83
2023-02-22T23:16:50.784Z,7.60
2023-02-22T23:19:20.446Z,8.27
2023-02-22T23:21:50.246Z,8.20
2023-02-22T23:24:21.012Z,8.90
2023-02-22T23:26:50.932Z,15.43
2023-02-22T23:29:20.719Z,15.43
2023-02-22T23:31:50.370Z,10.60
2023-02-22T23:34:21.180Z,8.93
2023-02-22T23:36:49.854Z,8.73
2023-02-22T23:39:20.580Z,7.67
2023-02-22T23:41:52.494Z,8.47
2023-02-22T23:44:21.848Z,7.83
2023-02-22T23:46:55.145Z,7.47
2023-02-22T23:49:24.692Z,7.43
2023-02-22T23:51:53.131Z,20.33
2023-02-22T23:54:24.497Z,13.90
2023-02-22T23:56:57.256Z,9.17
2023-02-22T23:59:28.090Z,8.10
